Startpagina
METAR-TAF:

METAR-TAF

Vliegvelden :

Palma de Mallorca, Spanje

Aeropuerto de Palma de Mallorca

breedte: 39-33N, lengte: 002-44E, hoogte: 4 m

Actueel weer

Dit bericht is 15 minuten geleden gemaakt, om 12:00 UTC
Wind 10 kt uit het zuidwesten, variërend tussen het zuidzuidwesten en het westen
Temperatuur 29°C
Vochtigheid 58%
Druk 1019 hPa
Zicht 10 km of meer
geen wolken onder 1500 m en geen cumulonimbus

METAR: LEPA 241200Z 23010KT 200V260 CAVOK 29/20 Q1019 NOSIG

Tijdstip: 14:15 (12:15 UTC)

Verwachting

Dit bericht is 19 uur en het 15 minuten geleden gemaakt, om 17:00 UTC
Verwachting geldig van 23 om 18 UTC tot 24 om 18 UTC
Wind 10 kt uit het zuidwesten
Zicht 10 km of meer
Weinig wolken op 2000 ft
Wijzigt naar
van 23 om 18 UTC tot 23 om 20 UTC
Wind 3 kt uit variabele richting
Wijzigt naar
van 24 om 08 UTC tot 24 om 10 UTC
Wind 10 kt uit het zuidwesten

TAF: LEPA 231700Z 2318/2418 22010KT 9999 FEW020 TX31/2413Z TN19/2406Z BECMG 2318/2320 VRB03KT BECMG 2408/2410 22010KT

Waarnemingen en weersverwachtingen van meer dan 4000 vliegvelden (METAR en TAF).

De beschikbare stations zijn de gele en rode punten op de kaart.

Ga met uw muis naar het station om de naam te zien.

Klik dan om waarnemingen en weersverwachtingen te zien.

kaart wijzigen: klik op de groene knoppen met een zwart kruis om in te zoomen, op de groene knop met een streepje om uit te zoomen of op de groene pijlen voor aangrenzende kaarten.


METAR-TAF: